sensor_id;sensor_type;location;lat;lon;timestamp;pressure;altitude;pressure_sealevel;temperature;humidity
46448;BME280;32145;50.390;30.778;2022-12-11T00:01:48;98902.31;;;1.07;86.85
46448;BME280;32145;50.390;30.778;2022-12-11T00:04:32;98891.63;;;1.07;86.73
46448;BME280;32145;50.390;30.778;2022-12-11T00:07:16;98884.25;;;1.09;86.74
46448;BME280;32145;50.390;30.778;2022-12-11T00:10:01;98888.38;;;1.12;86.61
46448;BME280;32145;50.390;30.778;2022-12-11T00:12:46;98885.31;;;1.15;86.60
46448;BME280;32145;50.390;30.778;2022-12-11T00:15:30;98895.81;;;1.17;86.67
46448;BME280;32145;50.390;30.778;2022-12-11T00:18:14;98888.81;;;1.15;86.63
46448;BME280;32145;50.390;30.778;2022-12-11T00:20:59;98886.75;;;1.11;86.92
46448;BME280;32145;50.390;30.778;2022-12-11T00:23:43;98888.38;;;1.12;86.80
46448;BME280;32145;50.390;30.778;2022-12-11T00:26:28;98882.66;;;1.15;86.89
46448;BME280;32145;50.390;30.778;2022-12-11T00:29:12;98880.41;;;1.19;86.63
46448;BME280;32145;50.390;30.778;2022-12-11T00:31:56;98881.84;;;1.21;86.75
46448;BME280;32145;50.390;30.778;2022-12-11T00:34:40;98878.97;;;1.23;87.22
46448;BME280;32145;50.390;30.778;2022-12-11T00:37:24;98881.03;;;1.21;86.93
46448;BME280;32145;50.390;30.778;2022-12-11T00:40:09;98878.75;;;1.18;87.02
46448;BME280;32145;50.390;30.778;2022-12-11T00:42:55;98874.06;;;1.20;86.68
46448;BME280;32145;50.390;30.778;2022-12-11T00:45:40;98870.38;;;1.21;86.62
46448;BME280;32145;50.390;30.778;2022-12-11T00:48:25;98870.38;;;1.21;86.80
46448;BME280;32145;50.390;30.778;2022-12-11T00:51:09;98872.00;;;1.22;86.54
46448;BME280;32145;50.390;30.778;2022-12-11T00:53:53;98872.19;;;1.20;87.10
46448;BME280;32145;50.390;30.778;2022-12-11T00:56:37;98866.06;;;1.20;86.95
46448;BME280;32145;50.390;30.778;2022-12-11T00:59:22;98858.03;;;1.20;86.87
46448;BME280;32145;50.390;30.778;2022-12-11T01:02:06;98850.44;;;1.23;86.66
46448;BME280;32145;50.390;30.778;2022-12-11T01:04:51;98854.38;;;1.27;86.71
46448;BME280;32145;50.390;30.778;2022-12-11T01:07:35;98863.25;;;1.35;86.82
46448;BME280;32145;50.390;30.778;2022-12-11T01:10:19;98879.50;;;1.40;87.17
46448;BME280;32145;50.390;30.778;2022-12-11T01:13:05;98893.69;;;1.40;87.34
46448;BME280;32145;50.390;30.778;2022-12-11T01:15:50;98905.38;;;1.39;86.96
46448;BME280;32145;50.390;30.778;2022-12-11T01:18:34;98910.28;;;1.36;87.13
46448;BME280;32145;50.390;30.778;2022-12-11T01:21:18;98892.63;;;1.35;86.82
46448;BME280;32145;50.390;30.778;2022-12-11T01:24:03;98889.75;;;1.36;86.83
46448;BME280;32145;50.390;30.778;2022-12-11T01:26:49;98880.09;;;1.35;87.23
46448;BME280;32145;50.390;30.778;2022-12-11T01:29:33;98887.28;;;1.35;87.12
46448;BME280;32145;50.390;30.778;2022-12-11T01:32:19;98887.09;;;1.36;87.22
46448;BME280;32145;50.390;30.778;2022-12-11T01:35:04;98884.41;;;1.36;87.04
46448;BME280;32145;50.390;30.778;2022-12-11T01:37:49;98874.75;;;1.35;87.22
46448;BME280;32145;50.390;30.778;2022-12-11T01:40:33;98870.22;;;1.36;87.07
46448;BME280;32145;50.390;30.778;2022-12-11T01:43:17;98872.91;;;1.36;87.31
46448;BME280;32145;50.390;30.778;2022-12-11T01:46:01;98866.53;;;1.37;87.06
46448;BME280;32145;50.390;30.778;2022-12-11T01:48:47;98862.41;;;1.34;87.15
46448;BME280;32145;50.390;30.778;2022-12-11T01:51:35;98866.75;;;1.35;87.25
46448;BME280;32145;50.390;30.778;2022-12-11T01:54:21;98856.88;;;1.36;87.30
46448;BME280;32145;50.390;30.778;2022-12-11T01:57:07;98842.72;;;1.35;87.08
46448;BME280;32145;50.390;30.778;2022-12-11T01:59:52;98839.22;;;1.35;87.02
46448;BME280;32145;50.390;30.778;2022-12-11T02:02:37;98841.03;;;1.34;87.03
46448;BME280;32145;50.390;30.778;2022-12-11T02:05:22;98852.38;;;1.36;86.95
46448;BME280;32145;50.390;30.778;2022-12-11T02:08:06;98853.63;;;1.40;86.86
46448;BME280;32145;50.390;30.778;2022-12-11T02:11:00;98839.03;;;1.43;87.19
46448;BME280;32145;50.390;30.778;2022-12-11T02:13:53;98824.84;;;1.42;87.03
46448;BME280;32145;50.390;30.778;2022-12-11T02:16:44;98819.50;;;1.42;87.26
46448;BME280;32145;50.390;30.778;2022-12-11T02:19:49;98812.97;;;1.45;87.00
46448;BME280;32145;50.390;30.778;2022-12-11T02:23:08;98796.09;;;1.45;87.00
46448;BME280;32145;50.390;30.778;2022-12-11T02:26:04;98790.75;;;1.45;87.00
46448;BME280;32145;50.390;30.778;2022-12-11T02:28:54;98786.44;;;1.44;87.13
46448;BME280;32145;50.390;30.778;2022-12-11T02:31:43;98765.69;;;1.46;86.91
46448;BME280;32145;50.390;30.778;2022-12-11T02:34:31;98759.53;;;1.45;87.23
46448;BME280;32145;50.390;30.778;2022-12-11T02:37:21;98749.66;;;1.46;86.99
46448;BME280;32145;50.390;30.778;2022-12-11T02:40:08;98754.59;;;1.49;86.77
46448;BME280;32145;50.390;30.778;2022-12-11T02:42:54;98754.59;;;1.49;86.64
46448;BME280;32145;50.390;30.778;2022-12-11T02:45:43;98743.72;;;1.50;86.85
46448;BME280;32145;50.390;30.778;2022-12-11T02:48:29;98728.31;;;1.52;86.72
46448;BME280;32145;50.390;30.778;2022-12-11T02:51:16;98722.75;;;1.54;86.99
46448;BME280;32145;50.390;30.778;2022-12-11T02:54:02;98713.09;;;1.53;87.08
46448;BME280;32145;50.390;30.778;2022-12-11T02:56:50;98710.25;;;1.54;86.56
46448;BME280;32145;50.390;30.778;2022-12-11T02:59:38;98701.19;;;1.56;87.05
46448;BME280;32145;50.390;30.778;2022-12-11T03:02:24;98701.19;;;1.56;87.07
46448;BME280;32145;50.390;30.778;2022-12-11T03:05:09;98701.00;;;1.57;86.87
46448;BME280;32145;50.390;30.778;2022-12-11T03:07:54;98697.09;;;1.60;87.07
46448;BME280;32145;50.390;30.778;2022-12-11T03:10:38;98704.91;;;1.61;87.03
46448;BME280;32145;50.390;30.778;2022-12-11T03:13:23;98706.72;;;1.61;86.99
46448;BME280;32145;50.390;30.778;2022-12-11T03:16:13;98695.66;;;1.64;86.70
46448;BME280;32145;50.390;30.778;2022-12-11T03:19:10;98708.81;;;1.65;86.88
46448;BME280;32145;50.390;30.778;2022-12-11T03:22:02;98711.06;;;1.69;86.69
46448;BME280;32145;50.390;30.778;2022-12-11T03:24:54;98702.03;;;1.70;86.90
46448;BME280;32145;50.390;30.778;2022-12-11T03:27:46;98690.31;;;1.71;86.85
46448;BME280;32145;50.390;30.778;2022-12-11T03:30:35;98688.47;;;1.71;86.96
46448;BME280;32145;50.390;30.778;2022-12-11T03:33:24;98694.66;;;1.72;86.91
46448;BME280;32145;50.390;30.778;2022-12-11T03:36:13;98689.28;;;1.72;86.95
46448;BME280;32145;50.390;30.778;2022-12-11T03:39:02;98692.97;;;1.71;86.42
46448;BME280;32145;50.390;30.778;2022-12-11T03:41:49;98708.00;;;1.72;86.81
46448;BME280;32145;50.390;30.778;2022-12-11T03:44:35;98716.03;;;1.72;86.63
46448;BME280;32145;50.390;30.778;2022-12-11T03:47:21;98709.63;;;1.73;86.99
46448;BME280;32145;50.390;30.778;2022-12-11T03:50:10;98706.97;;;1.73;86.85
46448;BME280;32145;50.390;30.778;2022-12-11T05:59:39;98579.41;;;2.27;86.84
46448;BME280;32145;50.390;30.778;2022-12-11T06:02:24;98585.16;;;2.31;86.96
46448;BME280;32145;50.390;30.778;2022-12-11T06:05:08;98581.44;;;2.32;86.92
46448;BME280;32145;50.390;30.778;2022-12-11T06:07:52;98583.91;;;2.34;87.21
46448;BME280;32145;50.390;30.778;2022-12-11T06:10:36;98580.19;;;2.35;87.20
46448;BME280;32145;50.390;30.778;2022-12-11T06:13:20;98577.91;;;2.38;87.30
46448;BME280;32145;50.390;30.778;2022-12-11T06:16:08;98586.56;;;2.40;86.89
46448;BME280;32145;50.390;30.778;2022-12-11T06:18:52;98579.75;;;2.44;87.00
46448;BME280;32145;50.390;30.778;2022-12-11T06:21:36;98568.63;;;2.48;86.57
46448;BME280;32145;50.390;30.778;2022-12-11T06:24:20;98561.19;;;2.50;86.46
46448;BME280;32145;50.390;30.778;2022-12-11T06:27:04;98549.25;;;2.52;86.59
46448;BME280;32145;50.390;30.778;2022-12-11T06:29:48;98552.53;;;2.54;86.94
46448;BME280;32145;50.390;30.778;2022-12-11T06:32:33;98551.28;;;2.57;87.05
46448;BME280;32145;50.390;30.778;2022-12-11T06:35:17;98545.72;;;2.58;87.10
46448;BME280;32145;50.390;30.778;2022-12-11T06:38:01;98548.78;;;2.62;87.15
46448;BME280;32145;50.390;30.778;2022-12-11T06:40:45;98545.09;;;2.63;87.09
46448;BME280;32145;50.390;30.778;2022-12-11T06:43:38;98541.16;;;2.66;87.21
46448;BME280;32145;50.390;30.778;2022-12-11T06:46:22;98520.13;;;2.69;87.24
46448;BME280;32145;50.390;30.778;2022-12-11T06:49:07;98526.91;;;2.72;86.73
46448;BME280;32145;50.390;30.778;2022-12-11T06:51:55;98524.63;;;2.76;86.78
46448;BME280;32145;50.390;30.778;2022-12-11T06:54:39;98521.13;;;2.75;87.29
46448;BME280;32145;50.390;30.778;2022-12-11T06:57:23;98517.19;;;2.78;87.30
46448;BME280;32145;50.390;30.778;2022-12-11T07:00:08;98507.09;;;2.80;86.79
46448;BME280;32145;50.390;30.778;2022-12-11T07:02:52;98505.84;;;2.82;87.06
46448;BME280;32145;50.390;30.778;2022-12-11T07:05:38;98496.56;;;2.85;87.36
46448;BME280;32145;50.390;30.778;2022-12-11T07:08:22;98491.00;;;2.87;87.25
46448;BME280;32145;50.390;30.778;2022-12-11T07:11:07;98493.47;;;2.88;87.25
46448;BME280;32145;50.390;30.778;2022-12-11T07:13:52;98485.44;;;2.88;87.24
46448;BME280;32145;50.390;30.778;2022-12-11T07:16:36;98491.41;;;2.90;87.10
46448;BME280;32145;50.390;30.778;2022-12-11T07:19:20;98500.00;;;2.92;87.37
46448;BME280;32145;50.390;30.778;2022-12-11T07:22:06;98490.94;;;2.93;87.29
46448;BME280;32145;50.390;30.778;2022-12-11T07:24:50;98493.19;;;2.96;87.28
46448;BME280;32145;50.390;30.778;2022-12-11T07:27:34;98475.28;;;2.97;87.15
46448;BME280;32145;50.390;30.778;2022-12-11T07:30:18;98466.19;;;2.98;87.18
46448;BME280;32145;50.390;30.778;2022-12-11T07:33:02;98464.94;;;3.01;87.20
46448;BME280;32145;50.390;30.778;2022-12-11T07:35:46;98457.53;;;3.03;87.18
46448;BME280;32145;50.390;30.778;2022-12-11T07:38:32;98454.38;;;3.06;87.09
46448;BME280;32145;50.390;30.778;2022-12-11T07:41:16;98456.19;;;3.12;87.24
46448;BME280;32145;50.390;30.778;2022-12-11T07:44:01;98455.97;;;3.14;87.35
46448;BME280;32145;50.390;30.778;2022-12-11T07:46:46;98450.63;;;3.14;87.31
46448;BME280;32145;50.390;30.778;2022-12-11T07:49:29;98449.97;;;3.18;87.39
46448;BME280;32145;50.390;30.778;2022-12-11T07:52:14;98438.78;;;3.21;87.22
46448;BME280;32145;50.390;30.778;2022-12-11T07:54:59;98444.31;;;3.27;87.11
46448;BME280;32145;50.390;30.778;2022-12-11T07:57:43;98440.16;;;3.31;87.13
46448;BME280;32145;50.390;30.778;2022-12-11T08:00:27;98431.69;;;3.34;87.11
46448;BME280;32145;50.390;30.778;2022-12-11T08:03:12;98431.44;;;3.35;87.28
46448;BME280;32145;50.390;30.778;2022-12-11T08:05:56;98424.22;;;3.36;87.20
46448;BME280;32145;50.390;30.778;2022-12-11T08:08:40;98428.31;;;3.39;87.17
46448;BME280;32145;50.390;30.778;2022-12-11T08:11:26;98418.78;;;3.43;87.34
46448;BME280;32145;50.390;30.778;2022-12-11T08:14:11;98422.88;;;3.45;87.47
46448;BME280;32145;50.390;30.778;2022-12-11T08:16:55;98412.56;;;3.49;87.16
46448;BME280;32145;50.390;30.778;2022-12-11T08:19:39;98403.25;;;3.52;87.21
46448;BME280;32145;50.390;30.778;2022-12-11T08:22:23;98396.41;;;3.56;87.32
46448;BME280;32145;50.390;30.778;2022-12-11T08:25:07;98399.22;;;3.61;87.30
46448;BME280;32145;50.390;30.778;2022-12-11T08:27:52;98382.69;;;3.64;87.32
46448;BME280;32145;50.390;30.778;2022-12-11T08:30:37;98386.56;;;3.68;87.25
46448;BME280;32145;50.390;30.778;2022-12-11T08:33:22;98375.75;;;3.75;87.41
46448;BME280;32145;50.390;30.778;2022-12-11T08:36:07;98371.72;;;3.84;87.41
46448;BME280;32145;50.390;30.778;2022-12-11T08:38:54;98367.47;;;3.95;87.31
46448;BME280;32145;50.390;30.778;2022-12-11T08:41:38;98352.66;;;4.05;87.61
46448;BME280;32145;50.390;30.778;2022-12-11T08:44:24;98347.59;;;4.15;87.18
46448;BME280;32145;50.390;30.778;2022-12-11T08:47:08;98343.50;;;4.24;87.53
46448;BME280;32145;50.390;30.778;2022-12-11T08:49:53;98336.19;;;4.32;87.33
46448;BME280;32145;50.390;30.778;2022-12-11T08:52:37;98325.13;;;4.40;87.62
46448;BME280;32145;50.390;30.778;2022-12-11T08:55:22;98326.66;;;4.48;87.61
46448;BME280;32145;50.390;30.778;2022-12-11T08:58:06;98319.53;;;4.54;87.46
46448;BME280;32145;50.390;30.778;2022-12-11T09:00:52;98318.59;;;4.60;87.33
46448;BME280;32145;50.390;30.778;2022-12-11T09:03:37;98321.66;;;4.63;87.62
46448;BME280;32145;50.390;30.778;2022-12-11T09:06:23;98305.28;;;4.65;87.72
46448;BME280;32145;50.390;30.778;2022-12-11T09:09:07;98302.13;;;4.68;87.31
46448;BME280;32145;50.390;30.778;2022-12-11T09:11:52;98301.22;;;4.74;87.40
46448;BME280;32145;50.390;30.778;2022-12-11T09:14:36;98297.00;;;4.79;87.30
46448;BME280;32145;50.390;30.778;2022-12-11T09:17:21;98281.84;;;4.84;87.49
46448;BME280;32145;50.390;30.778;2022-12-11T09:20:06;98279.47;;;4.88;87.34
46448;BME280;32145;50.390;30.778;2022-12-11T09:22:50;98273.41;;;4.93;87.66
46448;BME280;32145;50.390;30.778;2022-12-11T09:25:38;98264.75;;;4.90;87.43
46448;BME280;32145;50.390;30.778;2022-12-11T09:28:23;98260.56;;;4.95;87.20
46448;BME280;32145;50.390;30.778;2022-12-11T09:31:08;98252.25;;;4.96;87.60
46448;BME280;32145;50.390;30.778;2022-12-11T09:33:56;98241.53;;;4.96;87.43
46448;BME280;32145;50.390;30.778;2022-12-11T09:36:41;98245.38;;;5.00;87.56
46448;BME280;32145;50.390;30.778;2022-12-11T09:39:25;98237.31;;;5.00;87.47
46448;BME280;32145;50.390;30.778;2022-12-11T09:42:15;98240.59;;;5.02;87.05
46448;BME280;32145;50.390;30.778;2022-12-11T09:45:03;98229.00;;;5.02;87.07
46448;BME280;32145;50.390;30.778;2022-12-11T09:47:48;98226.09;;;5.03;87.58
46448;BME280;32145;50.390;30.778;2022-12-11T09:50:36;98215.94;;;5.06;87.27
46448;BME280;32145;50.390;30.778;2022-12-11T09:53:26;98194.69;;;5.04;87.65
46448;BME280;32145;50.390;30.778;2022-12-11T09:56:16;98202.50;;;5.06;87.31
46448;BME280;32145;50.390;30.778;2022-12-11T09:59:06;98195.59;;;5.10;87.59
46448;BME280;32145;50.390;30.778;2022-12-11T10:02:07;98186.00;;;5.14;87.74
46448;BME280;32145;50.390;30.778;2022-12-11T10:05:09;98181.56;;;5.20;87.21
46448;BME280;32145;50.390;30.778;2022-12-11T10:08:00;98171.97;;;5.24;87.02
46448;BME280;32145;50.390;30.778;2022-12-11T10:10:52;98166.91;;;5.27;86.92
46448;BME280;32145;50.390;30.778;2022-12-11T10:13:48;98161.06;;;5.31;86.80
46448;BME280;32145;50.390;30.778;2022-12-11T10:16:39;98150.97;;;5.38;87.36
46448;BME280;32145;50.390;30.778;2022-12-11T10:19:26;98146.25;;;5.45;87.28
46448;BME280;32145;50.390;30.778;2022-12-11T10:22:14;98139.34;;;5.49;86.98
46448;BME280;32145;50.390;30.778;2022-12-11T10:25:05;98142.09;;;5.54;87.37
46448;BME280;32145;50.390;30.778;2022-12-11T10:27:49;98123.06;;;5.56;87.26
46448;BME280;32145;50.390;30.778;2022-12-11T10:30:36;98112.13;;;5.63;87.36
46448;BME280;32145;50.390;30.778;2022-12-11T10:33:22;98105.69;;;5.64;86.84
46448;BME280;32145;50.390;30.778;2022-12-11T10:36:07;98103.09;;;5.69;86.69
46448;BME280;32145;50.390;30.778;2022-12-11T10:38:53;98103.16;;;5.74;86.90
46448;BME280;32145;50.390;30.778;2022-12-11T10:41:41;98087.69;;;5.82;86.68
46448;BME280;32145;50.390;30.778;2022-12-11T10:44:27;98091.50;;;5.86;86.36
46448;BME280;32145;50.390;30.778;2022-12-11T10:47:13;98084.34;;;5.91;86.53
46448;BME280;32145;50.390;30.778;2022-12-11T10:50:00;98075.50;;;5.96;86.74
46448;BME280;32145;50.390;30.778;2022-12-11T10:52:44;98060.03;;;6.03;87.07
46448;BME280;32145;50.390;30.778;2022-12-11T10:55:36;98053.72;;;6.15;87.21
46448;BME280;32145;50.390;30.778;2022-12-11T10:58:25;98055.44;;;6.21;87.03
46448;BME280;32145;50.390;30.778;2022-12-11T11:01:13;98050.69;;;6.28;87.28
46448;BME280;32145;50.390;30.778;2022-12-11T11:04:02;98043.72;;;6.32;87.15
46448;BME280;32145;50.390;30.778;2022-12-11T11:06:47;98041.09;;;6.38;87.54
46448;BME280;32145;50.390;30.778;2022-12-11T11:09:34;98045.41;;;6.39;86.56
46448;BME280;32145;50.390;30.778;2022-12-11T11:12:21;98037.31;;;6.39;86.77
46448;BME280;32145;50.390;30.778;2022-12-11T11:15:11;98029.59;;;6.42;87.15
46448;BME280;32145;50.390;30.778;2022-12-11T11:18:02;98029.34;;;6.44;87.21
46448;BME280;32145;50.390;30.778;2022-12-11T11:20:52;98019.13;;;6.46;87.04
46448;BME280;32145;50.390;30.778;2022-12-11T11:23:38;98011.34;;;6.50;86.98
46448;BME280;32145;50.390;30.778;2022-12-11T11:26:23;98009.22;;;6.52;87.40
46448;BME280;32145;50.390;30.778;2022-12-11T11:29:21;98002.75;;;6.53;86.81
46448;BME280;32145;50.390;30.778;2022-12-11T11:32:14;98005.19;;;6.54;87.59
46448;BME280;32145;50.390;30.778;2022-12-11T11:35:18;97988.53;;;6.57;87.60
46448;BME280;32145;50.390;30.778;2022-12-11T11:38:17;97993.19;;;6.62;87.61
46448;BME280;32145;50.390;30.778;2022-12-11T11:41:08;97982.66;;;6.61;86.83
46448;BME280;32145;50.390;30.778;2022-12-11T11:43:58;97977.28;;;6.61;87.05
46448;BME280;32145;50.390;30.778;2022-12-11T11:46:46;97974.63;;;6.66;87.22
46448;BME280;32145;50.390;30.778;2022-12-11T11:49:43;97972.53;;;6.73;86.90
46448;BME280;32145;50.390;30.778;2022-12-11T11:52:35;97956.66;;;6.77;86.87
46448;BME280;32145;50.390;30.778;2022-12-11T11:55:30;97959.69;;;6.80;87.05
46448;BME280;32145;50.390;30.778;2022-12-11T11:58:19;97955.41;;;6.85;86.90
46448;BME280;32145;50.390;30.778;2022-12-11T12:01:11;97944.91;;;6.88;87.02
46448;BME280;32145;50.390;30.778;2022-12-11T12:03:57;97937.41;;;6.90;88.08
46448;BME280;32145;50.390;30.778;2022-12-11T12:06:56;97941.47;;;6.93;87.42
46448;BME280;32145;50.390;30.778;2022-12-11T12:09:48;97931.28;;;7.00;87.82
46448;BME280;32145;50.390;30.778;2022-12-11T12:12:41;97938.28;;;7.01;87.77
46448;BME280;32145;50.390;30.778;2022-12-11T12:15:35;97927.00;;;7.04;88.32
46448;BME280;32145;50.390;30.778;2022-12-11T12:18:32;97928.09;;;7.08;87.72
46448;BME280;32145;50.390;30.778;2022-12-11T12:21:26;97929.72;;;7.09;88.13
46448;BME280;32145;50.390;30.778;2022-12-11T12:24:27;97927.59;;;7.12;87.80
46448;BME280;32145;50.390;30.778;2022-12-11T12:27:18;97918.69;;;7.11;87.27
46448;BME280;32145;50.390;30.778;2022-12-11T12:30:06;97916.00;;;7.11;87.31
46448;BME280;32145;50.390;30.778;2022-12-11T12:33:03;97917.94;;;7.16;87.43
46448;BME280;32145;50.390;30.778;2022-12-11T12:35:59;97904.97;;;7.18;88.17
46448;BME280;32145;50.390;30.778;2022-12-11T12:38:52;97906.59;;;7.19;88.08
46448;BME280;32145;50.390;30.778;2022-12-11T12:41:43;97903.66;;;7.20;87.66
46448;BME280;32145;50.390;30.778;2022-12-11T12:44:37;97902.84;;;7.20;88.14
46448;BME280;32145;50.390;30.778;2022-12-11T12:47:25;97896.66;;;7.19;88.14
46448;BME280;32145;50.390;30.778;2022-12-11T12:50:14;97895.81;;;7.19;87.76
46448;BME280;32145;50.390;30.778;2022-12-11T12:53:00;97893.69;;;7.21;87.88
46448;BME280;32145;50.390;30.778;2022-12-11T12:55:45;97888.84;;;7.23;87.76
46448;BME280;32145;50.390;30.778;2022-12-11T12:58:41;97888.59;;;7.25;87.72
46448;BME280;32145;50.390;30.778;2022-12-11T13:01:27;97883.19;;;7.25;88.06
46448;BME280;32145;50.390;30.778;2022-12-11T13:04:27;97885.94;;;7.30;87.78
46448;BME280;32145;50.390;30.778;2022-12-11T13:07:15;97878.38;;;7.32;88.03
46448;BME280;32145;50.390;30.778;2022-12-11T13:10:04;97884.59;;;7.32;87.99
46448;BME280;32145;50.390;30.778;2022-12-11T13:12:50;97876.25;;;7.34;88.14
46448;BME280;32145;50.390;30.778;2022-12-11T13:15:38;97876.00;;;7.35;88.36
46448;BME280;32145;50.390;30.778;2022-12-11T13:18:33;97878.16;;;7.39;88.02
46448;BME280;32145;50.390;30.778;2022-12-11T13:21:30;97874.94;;;7.42;88.58
46448;BME280;32145;50.390;30.778;2022-12-11T13:24:16;97866.03;;;7.41;88.25
46448;BME280;32145;50.390;30.778;2022-12-11T13:27:08;97873.84;;;7.43;87.88
46448;BME280;32145;50.390;30.778;2022-12-11T13:30:04;97860.69;;;7.46;88.23
46448;BME280;32145;50.390;30.778;2022-12-11T13:32:57;97858.78;;;7.47;88.43
46448;BME280;32145;50.390;30.778;2022-12-11T13:35:43;97859.59;;;7.47;88.34
46448;BME280;32145;50.390;30.778;2022-12-11T13:38:28;97846.94;;;7.48;88.05
46448;BME280;32145;50.390;30.778;2022-12-11T13:41:12;97847.47;;;7.50;88.28
46448;BME280;32145;50.390;30.778;2022-12-11T13:43:56;97846.66;;;7.50;88.00
46448;BME280;32145;50.390;30.778;2022-12-11T13:46:42;97843.69;;;7.51;88.93
46448;BME280;32145;50.390;30.778;2022-12-11T13:49:32;97837.25;;;7.52;88.77
46448;BME280;32145;50.390;30.778;2022-12-11T13:52:20;97842.63;;;7.52;88.41
46448;BME280;32145;50.390;30.778;2022-12-11T13:55:15;97843.16;;;7.54;88.64
46448;BME280;32145;50.390;30.778;2022-12-11T13:58:00;97838.03;;;7.53;88.62
46448;BME280;32145;50.390;30.778;2022-12-11T14:01:03;97834.56;;;7.57;88.65
46448;BME280;32145;50.390;30.778;2022-12-11T14:03:53;97828.91;;;7.59;89.00
46448;BME280;32145;50.390;30.778;2022-12-11T14:06:39;97833.47;;;7.58;88.93
46448;BME280;32145;50.390;30.778;2022-12-11T14:09:25;97829.16;;;7.57;88.55
46448;BME280;32145;50.390;30.778;2022-12-11T14:12:14;97827.28;;;7.58;88.70
46448;BME280;32145;50.390;30.778;2022-12-11T14:15:02;97827.81;;;7.60;89.18
46448;BME280;32145;50.390;30.778;2022-12-11T14:17:47;97820.81;;;7.64;89.57
46448;BME280;32145;50.390;30.778;2022-12-11T14:20:33;97824.06;;;7.66;89.35
46448;BME280;32145;50.390;30.778;2022-12-11T14:23:20;97824.59;;;7.68;89.08
46448;BME280;32145;50.390;30.778;2022-12-11T14:26:16;97816.25;;;7.70;89.33
46448;BME280;32145;50.390;30.778;2022-12-11T14:29:00;97816.50;;;7.68;88.98
46448;BME280;32145;50.390;30.778;2022-12-11T14:31:44;97811.69;;;7.70;89.38
46448;BME280;32145;50.390;30.778;2022-12-11T14:34:33;97810.34;;;7.73;89.71
46448;BME280;32145;50.390;30.778;2022-12-11T14:37:20;97813.84;;;7.73;89.25
46448;BME280;32145;50.390;30.778;2022-12-11T14:40:09;97798.47;;;7.74;89.81
46448;BME280;32145;50.390;30.778;2022-12-11T14:42:59;97808.72;;;7.72;89.12
46448;BME280;32145;50.390;30.778;2022-12-11T14:45:47;97807.38;;;7.74;89.11
46448;BME280;32145;50.390;30.778;2022-12-11T14:48:35;97804.69;;;7.74;89.24
46448;BME280;32145;50.390;30.778;2022-12-11T14:51:21;97807.13;;;7.76;89.06
46448;BME280;32145;50.390;30.778;2022-12-11T14:54:10;97800.06;;;7.75;88.84
46448;BME280;32145;50.390;30.778;2022-12-11T14:57:00;97804.94;;;7.78;89.35
46448;BME280;32145;50.390;30.778;2022-12-11T14:59:47;97802.25;;;7.78;89.47
46448;BME280;32145;50.390;30.778;2022-12-11T15:02:33;97806.59;;;7.79;89.81
46448;BME280;32145;50.390;30.778;2022-12-11T15:05:18;97813.59;;;7.80;89.33
46448;BME280;32145;50.390;30.778;2022-12-11T15:08:17;97813.06;;;7.83;89.29
46448;BME280;32145;50.390;30.778;2022-12-11T15:11:04;97806.59;;;7.79;89.18
46448;BME280;32145;50.390;30.778;2022-12-11T15:13:53;97805.75;;;7.79;89.65
46448;BME280;32145;50.390;30.778;2022-12-11T15:16:39;97797.66;;;7.79;89.34
46448;BME280;32145;50.390;30.778;2022-12-11T15:19:27;97795.78;;;7.79;89.76
46448;BME280;32145;50.390;30.778;2022-12-11T15:22:13;97799.56;;;7.78;89.13
46448;BME280;32145;50.390;30.778;2022-12-11T15:24:59;97796.31;;;7.76;89.14
46448;BME280;32145;50.390;30.778;2022-12-11T15:27:43;97799.56;;;7.78;88.88
46448;BME280;32145;50.390;30.778;2022-12-11T15:30:32;97796.31;;;7.81;88.97
46448;BME280;32145;50.390;30.778;2022-12-11T15:33:19;97795.25;;;7.82;89.09
46448;BME280;32145;50.390;30.778;2022-12-11T15:36:05;97794.72;;;7.80;89.44
46448;BME280;32145;50.390;30.778;2022-12-11T15:38:49;97791.47;;;7.78;89.31
46448;BME280;32145;50.390;30.778;2022-12-11T15:41:34;97783.38;;;7.78;89.08
46448;BME280;32145;50.390;30.778;2022-12-11T15:44:21;97781.75;;;7.77;89.38
46448;BME280;32145;50.390;30.778;2022-12-11T15:47:12;97787.16;;;7.82;89.07
46448;BME280;32145;50.390;30.778;2022-12-11T15:49:58;97786.91;;;7.94;89.99
46448;BME280;32145;50.390;30.778;2022-12-11T15:52:42;97780.19;;;8.07;90.48
46448;BME280;32145;50.390;30.778;2022-12-11T15:55:27;97784.50;;;8.13;90.41
46448;BME280;32145;50.390;30.778;2022-12-11T15:58:14;97786.38;;;8.23;90.41
46448;BME280;32145;50.390;30.778;2022-12-11T16:01:00;97785.59;;;8.28;90.73
46448;BME280;32145;50.390;30.778;2022-12-11T16:03:45;97779.91;;;8.35;90.44
46448;BME280;32145;50.390;30.778;2022-12-11T16:06:29;97779.09;;;8.40;90.66
46448;BME280;32145;50.390;30.778;2022-12-11T16:09:13;97783.97;;;8.48;90.82
46448;BME280;32145;50.390;30.778;2022-12-11T16:11:56;97782.34;;;8.47;90.88
46448;BME280;32145;50.390;30.778;2022-12-11T16:14:40;97780.16;;;8.49;91.00
46448;BME280;32145;50.390;30.778;2022-12-11T16:17:25;97778.03;;;8.51;91.18
46448;BME280;32145;50.390;30.778;2022-12-11T16:20:11;97786.41;;;8.55;91.03
46448;BME280;32145;50.390;30.778;2022-12-11T16:22:55;97783.72;;;8.55;91.41
46448;BME280;32145;50.390;30.778;2022-12-11T16:25:40;97783.13;;;8.52;91.08
46448;BME280;32145;50.390;30.778;2022-12-11T16:28:25;97773.72;;;8.55;91.54
46448;BME280;32145;50.390;30.778;2022-12-11T16:31:10;97766.16;;;8.57;91.54
46448;BME280;32145;50.390;30.778;2022-12-11T16:33:54;97772.09;;;8.59;91.47
46448;BME280;32145;50.390;30.778;2022-12-11T16:36:39;97766.94;;;8.63;91.50
46448;BME280;32145;50.390;30.778;2022-12-11T16:39:23;97770.47;;;8.63;91.79
46448;BME280;32145;50.390;30.778;2022-12-11T16:42:07;97771.53;;;8.68;91.87
46448;BME280;32145;50.390;30.778;2022-12-11T16:44:52;97771.53;;;8.68;91.99
46448;BME280;32145;50.390;30.778;2022-12-11T16:47:36;97765.06;;;8.69;92.11
46448;BME280;32145;50.390;30.778;2022-12-11T16:50:20;97767.22;;;8.72;92.32
46448;BME280;32145;50.390;30.778;2022-12-11T16:53:06;97777.47;;;8.75;92.46